createdAt,value
2019-04-11T00:01:44.722Z,6.10
2019-04-11T00:04:06.310Z,5.90
2019-04-11T00:06:33.819Z,6.40
2019-04-11T00:09:00.732Z,6.40
2019-04-11T00:11:28.167Z,6.80
2019-04-11T00:13:55.703Z,6.70
2019-04-11T00:16:23.464Z,6.70
2019-04-11T00:18:51.377Z,6.10
2019-04-11T00:21:18.153Z,6.40
2019-04-11T00:23:46.013Z,6.50
2019-04-11T00:26:13.823Z,6.70
2019-04-11T00:28:41.626Z,6.70
2019-04-11T00:31:08.585Z,6.60
2019-04-11T00:33:35.232Z,6.80
2019-04-11T00:36:02.029Z,6.70
2019-04-11T00:38:29.880Z,6.80
2019-04-11T00:40:57.574Z,6.90
2019-04-11T00:43:31.567Z,6.60
2019-04-11T00:45:53.978Z,6.60
2019-04-11T00:48:21.703Z,6.60
2019-04-11T00:50:49.563Z,6.60
2019-04-11T00:53:18.839Z,6.70
2019-04-11T00:55:45.937Z,6.70
2019-04-11T00:58:13.755Z,6.30
2019-04-11T01:00:40.732Z,6.30
2019-04-11T01:03:07.558Z,6.60
2019-04-11T01:05:34.256Z,6.70
2019-04-11T01:08:01.038Z,6.20
2019-04-11T01:10:27.901Z,6.40
2019-04-11T01:15:38.606Z,6.40
2019-04-11T01:18:05.650Z,5.80
2019-04-11T01:20:32.485Z,6.40
2019-04-11T01:22:59.438Z,6.20
2019-04-11T01:25:26.080Z,6.40
2019-04-11T01:27:52.777Z,5.90
2019-04-11T01:30:22.840Z,5.90
2019-04-11T01:32:50.464Z,6.00
2019-04-11T01:35:17.797Z,5.40
2019-04-11T01:37:46.049Z,5.40
2019-04-11T01:40:13.777Z,5.90
2019-04-11T01:42:41.657Z,5.80
2019-04-11T01:45:09.561Z,5.70
2019-04-11T01:47:39.278Z,5.90
2019-04-11T01:50:06.300Z,5.80
2019-04-11T01:52:34.083Z,5.30
2019-04-11T01:55:02.024Z,5.10
2019-04-11T01:57:29.731Z,5.60
2019-04-11T01:59:56.573Z,5.90
2019-04-11T02:02:30.892Z,5.70
2019-04-11T02:05:02.840Z,5.30
2019-04-11T02:07:30.914Z,5.10
2019-04-11T02:09:57.971Z,5.80
2019-04-11T02:12:24.674Z,5.70
2019-04-11T02:14:52.166Z,5.70
2019-04-11T02:17:18.957Z,5.80
2019-04-11T02:19:45.696Z,5.70
2019-04-11T02:22:30.711Z,5.90
2019-04-11T02:25:16.444Z,5.60
2019-04-11T02:27:44.262Z,5.80
2019-04-11T02:30:13.532Z,5.40
2019-04-11T02:32:40.509Z,5.60
2019-04-11T02:35:08.651Z,5.40
2019-04-11T02:37:35.521Z,5.70
2019-04-11T02:40:05.493Z,5.60
2019-04-11T02:42:34.927Z,5.40
2019-04-11T02:45:18.007Z,5.60
2019-04-11T02:47:33.304Z,5.30
2019-04-11T02:50:00.021Z,5.40
2019-04-11T02:52:27.771Z,5.70
2019-04-11T02:54:56.710Z,5.50
2019-04-11T02:57:23.574Z,5.50
2019-04-11T02:59:51.222Z,5.50
2019-04-11T03:02:19.473Z,5.10
2019-04-11T03:04:48.170Z,5.60
2019-04-11T03:07:16.391Z,5.60
2019-04-11T03:09:44.005Z,5.60
2019-04-11T03:12:13.281Z,5.50
2019-04-11T03:15:02.088Z,5.10
2019-04-11T03:17:16.948Z,5.30
2019-04-11T03:19:47.713Z,5.20
2019-04-11T03:22:05.769Z,5.20
2019-04-11T03:24:35.291Z,5.30
2019-04-11T03:27:04.589Z,5.20
2019-04-11T03:29:31.528Z,5.40
2019-04-11T03:39:44.292Z,5.30
2019-04-11T03:42:11.088Z,5.10
2019-04-11T03:44:28.987Z,5.00
2019-04-11T03:47:08.480Z,4.60
2019-04-11T03:49:29.423Z,4.70
2019-04-11T03:51:48.482Z,5.10
2019-04-11T03:54:15.692Z,5.20
2019-04-11T03:56:43.287Z,4.90
2019-04-11T03:59:14.191Z,5.10
2019-04-11T04:01:39.909Z,4.80
2019-04-11T04:04:08.921Z,4.70
2019-04-11T04:06:37.215Z,4.90
2019-04-11T04:09:06.618Z,5.00
2019-04-11T04:11:34.900Z,5.20
2019-04-11T04:14:08.016Z,5.00
2019-04-11T04:16:56.751Z,4.80
2019-04-11T04:19:30.704Z,5.10
2019-04-11T04:22:04.940Z,5.00
2019-04-11T04:24:37.888Z,5.00
2019-04-11T04:27:06.983Z,4.30
2019-04-11T04:29:32.261Z,5.00
2019-04-11T04:31:59.877Z,5.10
2019-04-11T04:34:28.194Z,5.00
2019-04-11T04:36:55.671Z,4.80
2019-04-11T04:39:24.403Z,5.00
2019-04-11T04:42:01.230Z,4.70
2019-04-11T04:44:22.409Z,5.00
2019-04-11T04:47:04.497Z,4.70
2019-04-11T04:49:18.639Z,5.00
2019-04-11T04:51:45.794Z,5.20
2019-04-11T04:54:14.233Z,5.00
2019-04-11T04:56:41.934Z,5.20
2019-04-11T04:59:11.788Z,4.80
2019-04-11T05:01:39.289Z,4.50
2019-04-11T05:04:06.863Z,4.20
2019-04-11T05:06:34.607Z,4.60
2019-04-11T05:09:01.421Z,4.70
2019-04-11T05:11:28.430Z,4.40
2019-04-11T05:13:56.445Z,4.30
2019-04-11T05:16:23.485Z,4.50
2019-04-11T05:18:50.524Z,4.80
2019-04-11T05:21:17.313Z,4.90
2019-04-11T05:23:44.000Z,5.10
2019-04-11T05:26:10.944Z,5.00
2019-04-11T05:28:37.720Z,5.10
2019-04-11T05:31:04.360Z,4.80
2019-04-11T05:33:31.456Z,4.90
2019-04-11T05:35:58.589Z,5.00
2019-04-11T05:38:25.496Z,4.90
2019-04-11T05:40:54.450Z,5.00
2019-04-11T05:43:24.605Z,5.10
2019-04-11T05:45:53.600Z,5.30
2019-04-11T05:48:23.488Z,5.40
2019-04-11T05:50:50.963Z,5.00
2019-04-11T05:53:18.926Z,5.40
2019-04-11T05:55:47.507Z,5.50
2019-04-11T05:58:15.963Z,5.50
2019-04-11T06:00:50.736Z,5.60
2019-04-11T06:03:17.743Z,5.60
2019-04-11T06:05:59.806Z,5.80
2019-04-11T06:08:28.574Z,5.80
2019-04-11T06:11:02.599Z,5.30
2019-04-11T06:13:30.092Z,5.40
2019-04-11T06:16:01.370Z,5.40
2019-04-11T06:18:44.759Z,5.50
2019-04-11T06:21:20.324Z,5.90
2019-04-11T06:23:49.905Z,5.30
2019-04-11T06:26:34.543Z,5.50
2019-04-11T06:29:17.394Z,5.60
2019-04-11T06:31:57.042Z,5.70
2019-04-11T06:34:27.001Z,6.00
2019-04-11T06:36:55.680Z,5.30
2019-04-11T06:39:33.519Z,5.50
2019-04-11T06:42:04.158Z,5.80
2019-04-11T06:44:48.496Z,5.70
2019-04-11T06:47:20.847Z,5.60
2019-04-11T06:50:02.768Z,5.80
2019-04-11T06:52:29.776Z,5.70
2019-04-11T06:55:08.698Z,5.50
2019-04-11T06:57:38.278Z,6.00
2019-04-11T07:00:09.225Z,5.90
2019-04-11T07:02:47.252Z,5.90
2019-04-11T07:05:16.123Z,6.10
2019-04-11T07:07:47.398Z,6.00
2019-04-11T07:10:15.863Z,5.90
2019-04-11T07:12:47.357Z,6.10
2019-04-11T07:15:23.070Z,6.70
2019-04-11T07:18:09.760Z,6.80
2019-04-11T07:20:44.178Z,6.90
2019-04-11T07:23:30.702Z,6.90
2019-04-11T07:26:00.308Z,7.10
2019-04-11T07:28:37.891Z,7.20
2019-04-11T07:31:15.603Z,6.90
2019-04-11T07:33:47.426Z,6.80
2019-04-11T07:36:32.413Z,7.00
2019-04-11T07:39:01.065Z,6.90
2019-04-11T07:41:39.192Z,6.80
2019-04-11T07:44:08.495Z,7.10
2019-04-11T07:46:51.912Z,7.10
2019-04-11T07:49:24.369Z,7.20
2019-04-11T07:51:53.150Z,6.80
2019-04-11T07:54:20.286Z,7.60
2019-04-11T07:56:55.095Z,7.80
2019-04-11T07:59:29.569Z,7.90
2019-04-11T08:02:04.036Z,8.20
2019-04-11T08:04:45.190Z,8.50
2019-04-11T08:07:30.500Z,8.40
2019-04-11T08:10:16.026Z,8.40
2019-04-11T08:12:43.617Z,8.60
2019-04-11T08:15:29.354Z,9.00
2019-04-11T08:17:58.093Z,8.60
2019-04-11T08:20:43.600Z,8.90
2019-04-11T08:23:11.648Z,9.10
2019-04-11T08:25:57.752Z,8.60
2019-04-11T08:28:24.826Z,7.90
2019-04-11T08:31:11.013Z,8.10
2019-04-11T08:33:38.427Z,8.90
2019-04-11T08:36:09.339Z,8.90
2019-04-11T08:38:36.416Z,8.80
2019-04-11T08:41:19.840Z,8.60
2019-04-11T08:43:47.664Z,8.80
2019-04-11T08:46:16.402Z,9.00
2019-04-11T08:48:45.651Z,9.30
2019-04-11T08:51:17.213Z,8.70
2019-04-11T08:53:45.842Z,9.00
2019-04-11T08:56:18.856Z,8.30
2019-04-11T08:59:17.286Z,8.70
2019-04-11T09:01:45.621Z,8.70
2019-04-11T09:04:32.346Z,8.90
2019-04-11T09:07:01.017Z,8.70
2019-04-11T09:09:36.264Z,8.80
2019-04-11T09:12:06.520Z,8.70
2019-04-11T09:14:50.581Z,8.80
2019-04-11T09:17:21.012Z,9.20
2019-04-11T09:19:56.915Z,8.70
2019-04-11T09:22:33.116Z,8.80
2019-04-11T09:25:10.919Z,9.70
2019-04-11T09:27:42.680Z,9.00
2019-04-11T09:30:13.334Z,9.60
2019-04-11T09:32:54.130Z,8.90
2019-04-11T09:35:39.501Z,8.40
2019-04-11T09:38:10.896Z,8.60
2019-04-11T09:40:42.347Z,9.30
2019-04-11T09:43:26.316Z,8.70
2019-04-11T09:45:54.974Z,8.90
2019-04-11T09:48:40.278Z,8.80
2019-04-11T09:51:24.065Z,9.10
2019-04-11T09:53:52.914Z,9.90
2019-04-11T09:56:39.588Z,9.10
2019-04-11T09:59:12.200Z,9.80
2019-04-11T10:01:49.712Z,10.10
2019-04-11T10:04:18.840Z,10.00
2019-04-11T10:07:03.832Z,10.30
2019-04-11T10:09:35.765Z,9.90
2019-04-11T10:12:22.076Z,10.30
2019-04-11T10:14:50.839Z,10.80
2019-04-11T10:17:24.297Z,10.70
2019-04-11T10:19:51.990Z,9.80
2019-04-11T10:22:30.137Z,10.30
2019-04-11T10:25:01.505Z,9.90
2019-04-11T10:27:33.073Z,10.00
2019-04-11T10:30:19.396Z,9.40
2019-04-11T10:32:48.123Z,9.60
2019-04-11T10:35:32.492Z,10.10
2019-04-11T10:38:00.451Z,9.60
2019-04-11T10:40:45.768Z,9.80
2019-04-11T10:43:12.615Z,10.40
2019-04-11T10:45:58.797Z,10.50
2019-04-11T10:48:34.514Z,10.40
2019-04-11T10:51:08.828Z,10.40
2019-04-11T10:53:35.862Z,10.60
2019-04-11T10:56:08.422Z,11.30
2019-04-11T10:58:37.255Z,11.40
2019-04-11T11:01:05.886Z,10.80
2019-04-11T11:03:34.496Z,10.50
2019-04-11T11:06:07.615Z,10.50
2019-04-11T11:08:36.196Z,10.90
2019-04-11T11:11:06.075Z,11.00
2019-04-11T11:13:40.744Z,10.30
2019-04-11T11:16:08.925Z,11.30
2019-04-11T11:19:24.622Z,11.10
2019-04-11T11:21:29.415Z,11.30
2019-04-11T11:24:11.813Z,10.40
2019-04-11T11:26:39.083Z,10.50
2019-04-11T11:29:13.102Z,10.50
2019-04-11T11:31:47.670Z,10.50
2019-04-11T11:34:21.275Z,11.00
2019-04-11T11:36:50.111Z,10.90
2019-04-11T11:39:31.102Z,11.20
2019-04-11T11:42:16.401Z,11.70
2019-04-11T11:44:48.804Z,11.70
2019-04-11T11:47:38.039Z,11.60
2019-04-11T11:50:06.584Z,11.50
2019-04-11T11:52:53.222Z,11.10
2019-04-11T11:55:21.994Z,11.70
2019-04-11T11:57:53.027Z,11.40
2019-04-11T12:00:21.233Z,11.30
2019-04-11T12:02:52.025Z,11.10
2019-04-11T12:05:27.064Z,11.40
2019-04-11T12:08:09.629Z,11.70
2019-04-11T12:10:35.506Z,11.70
2019-04-11T12:13:22.295Z,11.20
2019-04-11T12:15:54.876Z,11.00
2019-04-11T12:18:27.041Z,10.60
2019-04-11T12:20:57.503Z,10.80
2019-04-11T12:23:29.440Z,10.90
2019-04-11T12:25:57.649Z,11.50
2019-04-11T12:28:33.163Z,11.40
2019-04-11T12:31:05.520Z,11.20
2019-04-11T12:33:52.046Z,11.70
2019-04-11T12:36:21.044Z,11.70
2019-04-11T12:39:06.306Z,12.00
2019-04-11T12:41:37.839Z,12.50
2019-04-11T12:44:16.735Z,12.00
2019-04-11T12:46:54.387Z,11.70
2019-04-11T12:49:27.043Z,11.60
2019-04-11T12:52:12.206Z,11.90
2019-04-11T12:54:50.648Z,12.40
2019-04-11T12:57:35.893Z,12.10
2019-04-11T13:00:19.158Z,12.40
2019-04-11T13:03:04.423Z,11.80
2019-04-11T13:05:35.922Z,11.60
2019-04-11T13:08:04.509Z,11.80
2019-04-11T13:10:31.705Z,12.00
2019-04-11T13:13:22.578Z,12.00
2019-04-11T13:16:11.335Z,11.80
2019-04-11T13:18:46.593Z,11.90
2019-04-11T13:21:17.711Z,11.40
2019-04-11T13:23:55.699Z,11.70
2019-04-11T13:26:27.243Z,12.70
2019-04-11T13:29:12.447Z,12.40
2019-04-11T13:31:46.824Z,12.50
2019-04-11T13:34:15.400Z,12.20
2019-04-11T13:36:46.510Z,12.70
2019-04-11T13:39:13.988Z,12.60
2019-04-11T13:41:57.628Z,13.30
2019-04-11T13:44:24.672Z,12.80
2019-04-11T13:47:10.079Z,12.10
2019-04-11T13:49:38.730Z,11.90
2019-04-11T13:52:10.084Z,11.70
2019-04-11T13:54:41.225Z,11.40
2019-04-11T13:57:28.844Z,10.60
2019-04-11T14:00:27.095Z,11.60
2019-04-11T14:03:12.539Z,12.40
2019-04-11T14:05:41.128Z,12.50
2019-04-11T14:08:10.036Z,11.90
2019-04-11T14:10:37.709Z,10.70
2019-04-11T14:13:06.268Z,11.10
2019-04-11T14:15:36.481Z,10.80
2019-04-11T14:18:19.832Z,10.90
2019-04-11T14:20:54.466Z,10.20
2019-04-11T14:23:23.061Z,10.70
2019-04-11T14:26:08.055Z,11.10
2019-04-11T14:28:36.610Z,11.20
2019-04-11T14:31:22.695Z,11.10
2019-04-11T14:33:51.439Z,11.40
2019-04-11T14:36:36.715Z,11.40
2019-04-11T14:39:06.104Z,11.60
2019-04-11T14:41:41.693Z,10.70
2019-04-11T14:44:09.064Z,10.20
2019-04-11T14:46:40.255Z,9.60
2019-04-11T14:49:10.168Z,10.00
2019-04-11T14:51:37.843Z,9.80
2019-04-11T14:54:18.181Z,9.80
2019-04-11T14:56:47.793Z,9.90
2019-04-11T14:59:28.464Z,9.70
2019-04-11T15:02:01.636Z,9.50
2019-04-11T15:04:33.251Z,9.30
2019-04-11T15:07:01.112Z,9.40
2019-04-11T15:09:29.826Z,9.20
2019-04-11T15:11:58.798Z,9.20
2019-04-11T15:14:39.229Z,9.20
2019-04-11T15:17:13.692Z,9.00
2019-04-11T15:19:45.420Z,9.20
2019-04-11T15:22:26.148Z,9.00
2019-04-11T15:25:00.851Z,9.50
2019-04-11T15:27:46.022Z,9.10
2019-04-11T15:30:30.046Z,9.30
2019-04-11T15:33:15.171Z,9.40
2019-04-11T15:35:43.787Z,9.20
2019-04-11T15:38:29.087Z,8.80
2019-04-11T15:40:57.493Z,9.00
2019-04-11T15:43:43.572Z,8.80
2019-04-11T15:46:12.291Z,8.90
2019-04-11T15:48:40.835Z,8.60
2019-04-11T15:51:15.433Z,8.90
2019-04-11T15:53:43.991Z,8.90
2019-04-11T15:56:29.371Z,8.70
2019-04-11T15:59:12.941Z,8.50
2019-04-11T16:01:49.335Z,8.70
2019-04-11T16:04:22.308Z,8.90
2019-04-11T16:07:08.064Z,8.90
2019-04-11T16:09:35.548Z,9.10
2019-04-11T16:12:10.253Z,9.00
2019-04-11T16:14:36.923Z,9.00
2019-04-11T16:17:13.725Z,8.70
2019-04-11T16:19:41.489Z,8.60
2019-04-11T16:22:28.388Z,8.40
2019-04-11T16:24:58.336Z,8.20
2019-04-11T16:27:36.610Z,8.40
2019-04-11T16:30:11.134Z,8.30
2019-04-11T16:32:39.778Z,8.50
2019-04-11T16:35:08.520Z,8.40
2019-04-11T16:37:35.268Z,8.20
2019-04-11T16:40:23.140Z,8.30
2019-04-11T16:42:53.611Z,8.50
2019-04-11T16:45:37.766Z,8.50
2019-04-11T16:48:04.492Z,8.20
2019-04-11T16:50:31.291Z,8.10
2019-04-11T16:52:58.376Z,8.10
2019-04-11T16:55:25.352Z,8.40
2019-04-11T16:57:52.060Z,8.30
2019-04-11T17:00:20.583Z,7.90
2019-04-11T17:02:47.503Z,8.20
2019-04-11T17:05:14.744Z,8.10
2019-04-11T17:07:49.377Z,7.90
2019-04-11T17:10:17.928Z,7.90
2019-04-11T17:12:44.635Z,7.80
2019-04-11T17:15:11.523Z,8.10
2019-04-11T17:17:38.262Z,8.10
2019-04-11T17:20:06.460Z,8.10
2019-04-11T17:22:33.428Z,7.90
2019-04-11T17:25:00.092Z,7.70
2019-04-11T17:27:27.183Z,7.50
2019-04-11T17:29:55.393Z,7.60
2019-04-11T17:32:23.598Z,7.40
2019-04-11T17:34:51.739Z,7.30
2019-04-11T17:37:19.316Z,7.60
2019-04-11T17:39:46.085Z,7.70
2019-04-11T17:42:13.343Z,8.30
2019-04-11T17:44:41.922Z,7.90
2019-04-11T17:47:08.600Z,7.90
2019-04-11T17:49:35.267Z,7.70
2019-04-11T17:52:04.907Z,7.70
2019-04-11T17:54:30.645Z,7.30
2019-04-11T17:56:59.031Z,7.50
2019-04-11T17:59:28.074Z,7.60
2019-04-11T18:01:54.331Z,7.60
2019-04-11T18:04:21.090Z,7.50
2019-04-11T18:06:47.866Z,7.80
2019-04-11T18:09:14.565Z,7.70
2019-04-11T18:11:41.411Z,7.50
2019-04-11T18:14:08.104Z,7.50
2019-04-11T18:16:34.780Z,7.70
2019-04-11T18:19:05.696Z,7.50
2019-04-11T18:21:30.290Z,7.50
2019-04-11T18:23:56.944Z,7.40
2019-04-11T18:26:23.656Z,7.30
2019-04-11T18:28:51.966Z,7.70
2019-04-11T18:31:19.135Z,7.50
2019-04-11T18:33:45.915Z,7.20
2019-04-11T18:36:12.684Z,7.40
2019-04-11T18:38:39.521Z,7.20
2019-04-11T18:41:06.171Z,7.70
2019-04-11T18:43:32.851Z,7.30
2019-04-11T18:45:59.515Z,7.20
2019-04-11T18:48:26.440Z,7.40
2019-04-11T18:50:53.771Z,7.40
2019-04-11T18:53:20.581Z,7.30
2019-04-11T18:55:47.261Z,7.20
2019-04-11T18:58:13.953Z,7.20
2019-04-11T19:00:40.764Z,7.10
2019-04-11T19:03:08.000Z,7.10
2019-04-11T19:05:36.601Z,7.00
2019-04-11T19:08:03.338Z,6.90
2019-04-11T19:10:30.120Z,7.30
2019-04-11T19:12:58.664Z,7.10
2019-04-11T19:15:25.940Z,7.30
2019-04-11T19:18:05.789Z,7.30
2019-04-11T19:20:21.840Z,7.40
2019-04-11T19:22:48.924Z,7.30
2019-04-11T19:25:16.047Z,7.50
2019-04-11T19:27:43.835Z,7.20
2019-04-11T19:30:11.370Z,7.20
2019-04-11T19:32:38.108Z,7.30
2019-04-11T19:35:05.056Z,7.40
2019-04-11T19:37:32.100Z,7.50
2019-04-11T19:39:58.964Z,7.40
2019-04-11T19:42:25.668Z,7.20
2019-04-11T19:44:52.350Z,7.20
2019-04-11T19:47:21.429Z,7.00
2019-04-11T19:49:47.513Z,7.00
2019-04-11T19:52:14.163Z,7.00
2019-04-11T19:54:40.959Z,6.90
2019-04-11T19:57:07.584Z,7.10
2019-04-11T19:59:34.261Z,7.00
2019-04-11T20:02:01.227Z,7.00
2019-04-11T20:04:29.602Z,7.10
2019-04-11T20:06:56.262Z,7.00
2019-04-11T20:09:22.956Z,6.90
2019-04-11T20:11:49.734Z,6.90
2019-04-11T20:14:16.406Z,7.00
2019-04-11T20:16:48.142Z,6.80
2019-04-11T20:19:12.331Z,6.70
2019-04-11T20:21:39.060Z,6.90
2019-04-11T20:24:06.407Z,6.80
2019-04-11T20:26:32.996Z,6.50
2019-04-11T20:28:59.636Z,7.00
2019-04-11T20:31:26.320Z,6.90
2019-04-11T20:33:53.159Z,6.80
2019-04-11T20:36:19.857Z,6.50
2019-04-11T20:38:46.585Z,6.60
2019-04-11T20:41:13.347Z,6.60
2019-04-11T20:43:42.983Z,6.80
2019-04-11T20:46:08.798Z,6.90
2019-04-11T20:48:35.427Z,6.80
2019-04-11T20:51:04.047Z,6.80
2019-04-11T20:53:30.673Z,7.00
2019-04-11T20:55:57.513Z,6.70
2019-04-11T20:58:27.546Z,6.60
2019-04-11T21:00:55.717Z,6.70
2019-04-11T21:03:21.306Z,6.80
2019-04-11T21:05:48.661Z,6.90
2019-04-11T21:08:15.233Z,6.70
2019-04-11T21:10:41.934Z,6.80
2019-04-11T21:13:08.599Z,6.80
2019-04-11T21:15:35.407Z,6.70
2019-04-11T21:18:02.089Z,6.30
2019-04-11T21:20:28.872Z,6.40
2019-04-11T21:22:55.522Z,6.50
2019-04-11T21:25:22.211Z,7.00
2019-04-11T21:27:48.852Z,6.80
2019-04-11T21:30:15.548Z,6.40
2019-04-11T21:32:42.281Z,6.40
2019-04-11T21:35:08.968Z,6.10
2019-04-11T21:37:36.781Z,6.60
2019-04-11T21:40:05.508Z,6.50
2019-04-11T21:42:35.893Z,6.80
2019-04-11T21:45:20.502Z,6.40
2019-04-11T21:47:47.276Z,6.30
2019-04-11T21:50:14.452Z,6.30
2019-04-11T21:52:43.276Z,6.40
2019-04-11T21:55:09.615Z,6.60
2019-04-11T21:57:36.357Z,6.50
2019-04-11T22:00:12.940Z,6.20
2019-04-11T22:02:39.636Z,6.30
2019-04-11T22:05:06.348Z,6.60
2019-04-11T22:07:33.099Z,6.60
2019-04-11T22:09:59.776Z,6.10
2019-04-11T22:12:26.404Z,6.30
2019-04-11T22:14:53.076Z,6.50
2019-04-11T22:17:19.714Z,6.40
2019-04-11T22:19:46.558Z,6.50
2019-04-11T22:22:13.245Z,6.60
2019-04-11T22:24:40.032Z,6.20
2019-04-11T22:27:06.664Z,6.30
2019-04-11T22:29:33.367Z,6.20
2019-04-11T22:32:00.048Z,6.30
2019-04-11T22:34:31.641Z,6.50
2019-04-11T22:36:59.996Z,6.30
2019-04-11T22:39:28.991Z,5.80
2019-04-11T22:41:55.864Z,6.10
2019-04-11T22:44:22.523Z,6.10
2019-04-11T22:46:49.305Z,5.90
2019-04-11T22:49:16.020Z,6.10
2019-04-11T22:51:43.574Z,6.20
2019-04-11T22:54:12.998Z,6.30
2019-04-11T22:56:41.570Z,5.90
2019-04-11T22:59:07.648Z,6.00
2019-04-11T23:01:34.484Z,6.10
2019-04-11T23:04:01.838Z,6.10
2019-04-11T23:06:28.512Z,6.20
2019-04-11T23:08:55.155Z,6.20
2019-04-11T23:11:21.955Z,6.50
2019-04-11T23:13:48.568Z,6.40
2019-04-11T23:16:15.235Z,6.00
2019-04-11T23:18:43.952Z,5.90
2019-04-11T23:21:11.838Z,6.00
2019-04-11T23:23:39.240Z,6.00
2019-04-11T23:26:06.006Z,6.30
2019-04-11T23:28:32.736Z,6.50
2019-04-11T23:30:59.544Z,6.00
2019-04-11T23:33:26.191Z,5.80
2019-04-11T23:35:52.867Z,6.10
2019-04-11T23:38:23.608Z,6.00
2019-04-11T23:40:48.869Z,6.10
2019-04-11T23:43:19.861Z,6.30
2019-04-11T23:45:45.262Z,6.00
2019-04-11T23:48:12.269Z,5.90
2019-04-11T23:50:38.944Z,6.30
2019-04-11T23:53:05.640Z,6.30
2019-04-11T23:55:32.408Z,6.30
2019-04-11T23:58:01.253Z,6.20
